createdAt,value
2019-03-16T00:00:34.829Z,3.70
2019-03-16T00:03:05.203Z,3.50
2019-03-16T00:05:35.561Z,3.70
2019-03-16T00:08:25.453Z,3.63
2019-03-16T00:10:54.996Z,3.57
2019-03-16T00:13:25.186Z,4.13
2019-03-16T00:15:56.651Z,4.30
2019-03-16T00:18:27.669Z,4.40
2019-03-16T00:20:57.513Z,4.30
2019-03-16T00:23:28.176Z,4.37
2019-03-16T00:26:07.885Z,5.47
2019-03-16T00:28:37.804Z,3.50
2019-03-16T00:31:08.936Z,4.10
2019-03-16T00:33:42.110Z,3.70
2019-03-16T00:36:14.834Z,4.10
2019-03-16T00:38:44.455Z,4.37
2019-03-16T00:41:14.410Z,3.70
2019-03-16T00:43:49.565Z,3.90
2019-03-16T00:46:19.589Z,3.70
2019-03-16T00:48:52.590Z,4.47
2019-03-16T00:51:24.938Z,3.67
2019-03-16T00:53:55.010Z,3.97
2019-03-16T00:56:24.519Z,3.90
2019-03-16T00:58:54.195Z,4.77
2019-03-16T01:01:27.625Z,3.70
2019-03-16T01:03:57.979Z,3.80
2019-03-16T01:06:31.377Z,3.60
2019-03-16T01:09:02.062Z,3.90
2019-03-16T01:11:32.596Z,3.70
2019-03-16T01:14:02.519Z,4.40
2019-03-16T01:16:32.486Z,3.40
2019-03-16T01:19:02.294Z,3.70
2019-03-16T01:21:32.438Z,3.70
2019-03-16T01:24:05.999Z,4.00
2019-03-16T01:26:36.620Z,3.60
2019-03-16T01:29:07.143Z,3.60
2019-03-16T01:31:39.084Z,5.20
2019-03-16T01:34:09.828Z,3.50
2019-03-16T01:36:39.911Z,4.20
2019-03-16T01:39:09.833Z,4.53
2019-03-16T01:41:39.937Z,3.80
2019-03-16T01:44:10.284Z,3.60
2019-03-16T01:46:41.017Z,3.60
2019-03-16T01:49:11.546Z,3.60
2019-03-16T01:51:44.609Z,3.60
2019-03-16T01:54:19.491Z,4.57
2019-03-16T01:57:05.701Z,3.43
2019-03-16T01:59:35.608Z,4.10
2019-03-16T02:02:08.687Z,4.20
2019-03-16T02:04:38.919Z,3.40
2019-03-16T02:07:08.710Z,3.30
2019-03-16T02:09:38.773Z,3.80
2019-03-16T02:12:08.749Z,3.97
2019-03-16T02:14:39.226Z,4.27
2019-03-16T02:17:13.258Z,3.60
2019-03-16T02:19:46.556Z,3.83
2019-03-16T02:22:16.122Z,3.77
2019-03-16T02:24:46.135Z,3.40
2019-03-16T02:27:17.225Z,3.60
2019-03-16T02:29:47.266Z,3.60
2019-03-16T02:32:20.410Z,3.40
2019-03-16T02:34:50.362Z,3.50
2019-03-16T02:37:23.693Z,3.80
2019-03-16T02:39:53.817Z,3.70
2019-03-16T02:42:26.980Z,3.50
2019-03-16T02:44:58.900Z,3.40
2019-03-16T02:47:28.966Z,3.67
2019-03-16T02:49:58.754Z,3.50
2019-03-16T02:52:28.509Z,3.40
2019-03-16T02:54:58.341Z,4.00
2019-03-16T02:57:28.095Z,3.40
2019-03-16T03:00:00.242Z,3.97
2019-03-16T03:02:30.561Z,4.20
2019-03-16T03:05:05.774Z,3.40
2019-03-16T03:07:35.588Z,3.40
2019-03-16T03:10:06.864Z,3.50
2019-03-16T03:12:36.891Z,3.43
2019-03-16T03:15:08.094Z,3.40
2019-03-16T03:17:38.279Z,5.00
2019-03-16T03:20:08.302Z,4.50
2019-03-16T03:22:38.387Z,3.50
2019-03-16T03:25:08.512Z,4.33
2019-03-16T03:27:38.409Z,4.00
2019-03-16T03:30:08.741Z,3.40
2019-03-16T03:32:38.955Z,3.70
2019-03-16T03:35:08.882Z,3.80
2019-03-16T03:37:38.661Z,3.77
2019-03-16T03:40:08.650Z,3.90
2019-03-16T03:42:38.673Z,4.13
2019-03-16T03:45:08.675Z,3.70
2019-03-16T03:47:38.794Z,4.17
2019-03-16T03:50:11.803Z,3.70
2019-03-16T03:52:41.743Z,3.70
2019-03-16T03:55:12.025Z,3.50
2019-03-16T03:57:42.278Z,3.50
2019-03-16T04:00:12.398Z,3.60
2019-03-16T04:02:42.176Z,3.70
2019-03-16T04:05:11.739Z,3.70
2019-03-16T04:07:51.081Z,4.00
2019-03-16T04:10:21.097Z,3.73
2019-03-16T04:12:51.049Z,3.60
2019-03-16T04:15:20.893Z,4.40
2019-03-16T04:17:52.718Z,3.90
2019-03-16T04:20:23.013Z,4.23
2019-03-16T04:22:53.185Z,3.90
2019-03-16T04:25:25.774Z,4.53
2019-03-16T04:27:55.733Z,3.90
2019-03-16T04:30:25.663Z,3.70
2019-03-16T04:32:56.205Z,3.70
2019-03-16T04:35:29.280Z,4.03
2019-03-16T04:37:59.682Z,3.70
2019-03-16T04:40:29.724Z,3.70
2019-03-16T04:42:59.599Z,4.07
2019-03-16T04:45:29.169Z,5.23
2019-03-16T04:47:58.735Z,4.53
2019-03-16T04:50:29.425Z,4.60
2019-03-16T04:52:59.469Z,4.37
2019-03-16T04:55:30.779Z,3.77
2019-03-16T04:58:00.455Z,5.00
2019-03-16T05:00:30.540Z,4.10
2019-03-16T05:03:00.577Z,4.50
2019-03-16T05:05:30.557Z,3.83
2019-03-16T05:08:00.885Z,5.20
2019-03-16T05:10:31.607Z,4.63
2019-03-16T05:13:01.765Z,6.43
2019-03-16T05:15:32.236Z,4.20
2019-03-16T05:18:02.671Z,3.83
2019-03-16T05:20:36.996Z,4.47
2019-03-16T05:23:07.212Z,4.10
2019-03-16T05:25:39.347Z,5.73
2019-03-16T05:28:10.108Z,5.83
2019-03-16T05:30:40.803Z,6.67
2019-03-16T05:33:12.822Z,4.30
2019-03-16T05:35:43.137Z,4.47
2019-03-16T05:38:13.049Z,4.30
2019-03-16T05:40:42.917Z,5.50
2019-03-16T05:43:12.567Z,5.70
2019-03-16T05:45:43.884Z,5.00
2019-03-16T05:48:14.472Z,5.20
2019-03-16T05:50:46.991Z,4.70
2019-03-16T05:53:17.753Z,5.07
2019-03-16T05:55:48.372Z,4.20
2019-03-16T05:58:18.387Z,5.13
2019-03-16T06:00:53.265Z,5.00
2019-03-16T06:03:33.400Z,4.63
2019-03-16T06:06:03.313Z,5.27
2019-03-16T06:08:33.782Z,7.10
2019-03-16T06:11:10.192Z,7.43
2019-03-16T06:13:43.295Z,6.60
2019-03-16T06:16:14.747Z,6.13
2019-03-16T06:18:51.047Z,6.60
2019-03-16T06:22:02.120Z,8.33
2019-03-16T06:24:32.798Z,5.07
2019-03-16T06:27:49.176Z,10.27
2019-03-16T06:30:24.993Z,5.63
2019-03-16T06:32:55.223Z,6.70
2019-03-16T06:35:29.544Z,8.70
2019-03-16T06:37:59.627Z,6.73
2019-03-16T06:40:29.338Z,7.10
2019-03-16T06:42:58.821Z,5.63
2019-03-16T06:45:29.141Z,6.27
2019-03-16T06:47:59.115Z,8.43
2019-03-16T06:50:30.677Z,5.10
2019-03-16T06:53:00.337Z,5.63
2019-03-16T06:55:32.605Z,8.43
2019-03-16T06:58:19.266Z,5.53
2019-03-16T07:00:48.981Z,6.07
2019-03-16T07:03:19.422Z,7.80
2019-03-16T07:05:49.533Z,5.23
2019-03-16T07:08:19.046Z,8.63
2019-03-16T07:10:49.289Z,8.90
2019-03-16T07:13:19.256Z,10.23
2019-03-16T07:15:49.236Z,6.37
2019-03-16T07:18:31.325Z,7.23
2019-03-16T07:21:03.721Z,6.40
2019-03-16T07:23:33.990Z,8.67
2019-03-16T07:26:14.748Z,7.77
2019-03-16T07:28:37.419Z,10.10
2019-03-16T07:31:07.079Z,8.70
2019-03-16T07:33:36.534Z,6.37
2019-03-16T07:36:07.117Z,8.20
2019-03-16T07:38:37.421Z,6.20
2019-03-16T07:41:07.584Z,7.07
2019-03-16T07:43:38.264Z,8.33
2019-03-16T07:46:08.810Z,8.53
2019-03-16T07:48:46.738Z,5.67
2019-03-16T07:51:18.231Z,8.90
2019-03-16T07:53:50.486Z,6.13
2019-03-16T07:56:22.078Z,5.70
2019-03-16T07:58:55.938Z,6.43
2019-03-16T08:01:44.989Z,7.63
2019-03-16T08:04:17.252Z,10.20
2019-03-16T08:10:29.329Z,6.30
2019-03-16T08:12:59.933Z,5.70
2019-03-16T08:15:40.749Z,7.93
2019-03-16T08:18:12.650Z,7.20
2019-03-16T08:20:50.729Z,6.60
2019-03-16T08:23:25.153Z,7.10
2019-03-16T08:25:56.971Z,5.80
2019-03-16T08:28:30.231Z,5.08
2019-03-16T08:31:01.517Z,5.93
2019-03-16T08:33:32.271Z,7.83
2019-03-16T08:36:07.221Z,4.90
2019-03-16T08:38:42.805Z,7.60
2019-03-16T08:41:15.983Z,7.50
2019-03-16T08:44:15.975Z,7.20
2019-03-16T08:46:50.123Z,6.53
2019-03-16T08:49:26.734Z,6.30
2019-03-16T08:52:11.224Z,4.97
2019-03-16T08:54:48.207Z,5.27
2019-03-16T08:57:45.442Z,5.90
2019-03-16T09:00:17.421Z,5.47
2019-03-16T09:02:48.338Z,6.20
2019-03-16T09:05:26.703Z,8.30
2019-03-16T09:08:36.853Z,5.90
2019-03-16T09:15:14.551Z,5.50
2019-03-16T09:18:14.369Z,8.37
2019-03-16T09:27:39.796Z,8.33
2019-03-16T09:30:16.978Z,8.30
2019-03-16T09:33:07.724Z,6.60
2019-03-16T09:36:30.027Z,6.13
2019-03-16T09:40:14.647Z,5.83
2019-03-16T09:43:09.837Z,8.10
2019-03-16T09:50:07.585Z,9.73
2019-03-16T09:50:46.919Z,6.27
2019-03-16T09:53:38.808Z,6.20
2019-03-16T09:56:34.669Z,6.87
2019-03-16T09:59:30.148Z,6.37
2019-03-16T10:06:08.520Z,6.60
2019-03-16T10:08:42.253Z,7.10
2019-03-16T10:14:39.685Z,7.43
2019-03-16T10:17:18.956Z,8.33
2019-03-16T10:20:03.866Z,8.73
2019-03-16T10:22:55.631Z,4.33
2019-03-16T10:29:18.656Z,5.37
2019-03-16T10:31:56.316Z,6.40
2019-03-16T10:34:26.636Z,6.03
2019-03-16T10:36:56.400Z,8.93
2019-03-16T10:39:26.811Z,5.30
2019-03-16T10:41:57.619Z,5.30
2019-03-16T10:44:27.671Z,5.97
2019-03-16T10:46:57.851Z,8.00
2019-03-16T10:49:27.942Z,5.53
2019-03-16T10:52:00.384Z,4.40
2019-03-16T10:54:30.422Z,4.77
2019-03-16T10:57:00.782Z,6.90
2019-03-16T10:59:42.922Z,4.90
2019-03-16T11:02:17.212Z,5.40
2019-03-16T11:04:50.422Z,5.53
2019-03-16T11:07:49.712Z,5.37
2019-03-16T11:10:21.145Z,5.17
2019-03-16T11:12:56.492Z,5.07
2019-03-16T11:15:32.546Z,6.70
2019-03-16T11:18:02.599Z,9.07
2019-03-16T11:20:33.121Z,5.80
2019-03-16T11:23:10.244Z,5.13
2019-03-16T11:25:55.816Z,5.40
2019-03-16T11:28:50.645Z,5.90
2019-03-16T11:31:20.323Z,4.97
2019-03-16T11:33:55.582Z,6.07
2019-03-16T11:36:42.036Z,4.87
2019-03-16T11:39:14.389Z,6.13
2019-03-16T11:41:44.488Z,6.63
2019-03-16T11:44:15.299Z,4.50
2019-03-16T11:46:58.330Z,5.57
2019-03-16T11:57:21.440Z,5.03
2019-03-16T12:00:47.156Z,4.50
2019-03-16T12:06:27.752Z,4.30
2019-03-16T12:09:35.936Z,6.70
2019-03-16T12:16:03.563Z,4.60
2019-03-16T12:19:49.022Z,5.60
2019-03-16T12:22:30.476Z,4.33
2019-03-16T12:25:03.380Z,5.17
2019-03-16T12:27:42.935Z,5.50
2019-03-16T12:30:13.146Z,4.00
2019-03-16T12:32:47.715Z,4.10
2019-03-16T12:35:16.046Z,4.50
2019-03-16T12:37:46.316Z,4.50
2019-03-16T12:40:18.890Z,6.70
2019-03-16T12:42:49.380Z,4.60
2019-03-16T12:45:31.974Z,4.60
2019-03-16T12:51:38.184Z,4.47
2019-03-16T12:54:14.309Z,4.47
2019-03-16T12:57:03.998Z,4.27
2019-03-16T12:59:46.978Z,4.03
2019-03-16T13:05:13.124Z,5.37
2019-03-16T13:07:48.400Z,5.03
2019-03-16T13:10:31.306Z,4.27
2019-03-16T13:12:55.396Z,5.97
2019-03-16T13:15:39.963Z,6.43
2019-03-16T13:18:14.121Z,4.97
2019-03-16T13:20:47.743Z,5.70
2019-03-16T13:23:55.838Z,5.33
2019-03-16T13:26:38.391Z,4.93
2019-03-16T13:29:29.343Z,4.60
2019-03-16T13:31:58.388Z,5.70
2019-03-16T13:34:34.038Z,4.33
2019-03-16T13:37:04.198Z,4.30
2019-03-16T13:39:34.274Z,5.27
2019-03-16T13:42:49.470Z,3.90
2019-03-16T13:48:58.083Z,4.43
2019-03-16T13:52:17.809Z,5.00
2019-03-16T13:55:14.063Z,4.10
2019-03-16T13:58:02.532Z,4.20
2019-03-16T14:00:34.072Z,4.80
2019-03-16T14:04:42.058Z,4.30
2019-03-16T14:15:38.702Z,5.33
2019-03-16T14:18:40.572Z,4.77
2019-03-16T14:29:13.318Z,4.10
2019-03-16T14:31:53.536Z,6.00
2019-03-16T14:34:36.645Z,4.80
2019-03-16T14:38:04.864Z,13.10
2019-03-16T14:40:52.072Z,12.10
2019-03-16T14:43:28.714Z,11.10
2019-03-16T14:52:51.215Z,5.53
2019-03-16T14:59:34.897Z,4.00
2019-03-16T15:05:52.836Z,4.00
2019-03-16T15:12:53.288Z,4.70
2019-03-16T15:16:01.551Z,6.10
2019-03-16T15:19:02.979Z,6.20
2019-03-16T15:28:55.011Z,4.40
2019-03-16T15:35:14.638Z,5.90
2019-03-16T15:40:50.266Z,5.90
2019-03-16T15:44:22.310Z,4.40
2019-03-16T15:47:20.026Z,5.07
2019-03-16T15:53:28.269Z,4.33
2019-03-16T15:58:53.149Z,3.90
2019-03-16T16:01:28.925Z,7.70
2019-03-16T16:07:19.108Z,4.37
2019-03-16T16:10:42.711Z,4.47
2019-03-16T16:20:35.405Z,4.43
2019-03-16T16:28:10.695Z,4.87
2019-03-16T16:30:45.263Z,4.97
2019-03-16T16:34:04.662Z,4.20
2019-03-16T16:36:37.140Z,4.10
2019-03-16T16:39:09.984Z,5.47
2019-03-16T16:43:22.038Z,4.10
2019-03-16T16:49:28.453Z,4.10
2019-03-16T16:55:35.881Z,4.45
2019-03-16T16:58:41.589Z,4.23
2019-03-16T17:01:04.625Z,4.90
2019-03-16T17:03:55.372Z,4.80
2019-03-16T17:06:26.532Z,7.37
2019-03-16T17:09:17.834Z,5.43
2019-03-16T17:15:23.789Z,4.40
2019-03-16T17:21:34.585Z,4.90
2019-03-16T17:24:17.006Z,4.40
2019-03-16T17:26:55.768Z,4.70
2019-03-16T17:29:26.412Z,4.83
2019-03-16T17:31:56.947Z,4.60
2019-03-16T17:34:27.353Z,10.93
2019-03-16T17:36:57.092Z,5.50
2019-03-16T17:39:28.231Z,5.27
2019-03-16T17:42:02.743Z,4.40
2019-03-16T17:44:59.731Z,4.67
2019-03-16T17:47:30.656Z,4.40
2019-03-16T17:50:09.767Z,5.10
2019-03-16T17:53:21.217Z,4.90
2019-03-16T17:56:24.903Z,4.87
2019-03-16T17:58:55.434Z,4.90
2019-03-16T18:01:29.468Z,5.73
2019-03-16T18:04:02.583Z,10.97
2019-03-16T18:06:49.422Z,6.90
2019-03-16T18:09:25.969Z,6.40
2019-03-16T18:11:57.895Z,5.40
2019-03-16T18:14:28.363Z,5.75
2019-03-16T18:17:01.736Z,8.37
2019-03-16T18:19:38.302Z,7.63
2019-03-16T18:22:08.242Z,7.15
2019-03-16T18:24:40.910Z,8.07
2019-03-16T18:27:11.020Z,8.00
2019-03-16T18:29:41.653Z,10.17
2019-03-16T18:32:11.710Z,8.50
2019-03-16T18:34:41.460Z,8.87
2019-03-16T18:37:11.267Z,7.90
2019-03-16T18:42:41.866Z,8.23
2019-03-16T18:45:13.914Z,7.67
2019-03-16T18:47:44.903Z,9.00
2019-03-16T18:50:14.920Z,6.63
2019-03-16T18:52:51.026Z,8.10
2019-03-16T18:55:26.252Z,9.20
2019-03-16T18:57:57.646Z,11.87
2019-03-16T19:00:49.642Z,9.80
2019-03-16T19:03:17.423Z,9.63
2019-03-16T19:05:49.435Z,8.63
2019-03-16T19:08:21.201Z,7.57
2019-03-16T19:10:54.059Z,6.90
2019-03-16T19:13:35.906Z,7.03
2019-03-16T19:16:09.258Z,6.97
2019-03-16T19:18:42.365Z,8.40
2019-03-16T19:21:22.475Z,7.70
2019-03-16T19:23:56.063Z,7.30
2019-03-16T19:26:26.316Z,8.90
2019-03-16T19:28:56.494Z,7.80
2019-03-16T19:31:28.332Z,6.20
2019-03-16T19:34:02.844Z,6.40
2019-03-16T19:36:34.327Z,6.13
2019-03-16T19:39:16.057Z,5.37
2019-03-16T19:41:46.487Z,5.93
2019-03-16T19:44:16.688Z,6.00
2019-03-16T19:46:56.104Z,6.70
2019-03-16T19:49:27.089Z,6.70
2019-03-16T19:51:57.649Z,5.67
2019-03-16T19:54:31.584Z,5.93
2019-03-16T19:57:01.578Z,8.17
2019-03-16T19:59:32.389Z,7.67
2019-03-16T20:02:02.339Z,12.03
2019-03-16T20:04:36.172Z,15.43
2019-03-16T20:07:18.432Z,18.40
2019-03-16T20:09:39.271Z,7.77
2019-03-16T20:12:09.290Z,6.40
2019-03-16T20:14:40.107Z,11.73
2019-03-16T20:17:10.224Z,9.00
2019-03-16T20:19:39.859Z,19.70
2019-03-16T20:22:12.356Z,8.77
2019-03-16T20:24:47.258Z,14.07
2019-03-16T20:27:19.522Z,6.93
2019-03-16T20:29:49.999Z,15.70
2019-03-16T20:32:20.263Z,16.00
2019-03-16T20:34:50.603Z,18.43
2019-03-16T20:37:20.819Z,13.80
2019-03-16T20:39:55.562Z,10.50
2019-03-16T20:42:25.574Z,8.37
2019-03-16T20:44:56.085Z,8.40
2019-03-16T20:47:30.947Z,9.07
2019-03-16T20:50:03.906Z,12.43
2019-03-16T20:52:33.571Z,10.50
2019-03-16T20:55:11.266Z,7.03
2019-03-16T20:57:46.148Z,8.87
2019-03-16T21:00:16.353Z,7.63
2019-03-16T21:02:47.201Z,4.87
2019-03-16T21:05:25.131Z,6.77
2019-03-16T21:07:56.216Z,4.72
2019-03-16T21:10:33.339Z,8.70
2019-03-16T21:13:06.458Z,5.47
2019-03-16T21:15:38.038Z,5.23
2019-03-16T21:18:08.231Z,5.43
2019-03-16T21:20:39.947Z,4.90
2019-03-16T21:23:09.672Z,5.37
2019-03-16T21:25:42.943Z,4.70
2019-03-16T21:28:15.782Z,4.50
2019-03-16T21:30:45.413Z,6.50
2019-03-16T21:33:28.986Z,6.00
2019-03-16T21:35:54.411Z,5.37
2019-03-16T21:38:30.374Z,8.50
2019-03-16T21:41:09.462Z,4.60
2019-03-16T21:43:44.204Z,4.60
2019-03-16T21:46:24.609Z,4.70
2019-03-16T21:48:54.266Z,5.90
2019-03-16T21:51:24.655Z,4.13
2019-03-16T21:53:55.990Z,5.07
2019-03-16T21:56:27.078Z,4.30
2019-03-16T21:58:59.089Z,5.00
2019-03-16T22:01:29.279Z,5.53
2019-03-16T22:04:02.561Z,5.33
2019-03-16T22:06:33.139Z,4.50
2019-03-16T22:09:02.989Z,4.80
2019-03-16T22:11:33.615Z,4.73
2019-03-16T22:14:03.064Z,7.80
2019-03-16T22:16:32.705Z,6.60
2019-03-16T22:19:06.450Z,7.00
2019-03-16T22:21:38.467Z,6.47
2019-03-16T22:24:18.769Z,5.30
2019-03-16T22:27:07.253Z,5.07
2019-03-16T22:29:40.201Z,5.00
2019-03-16T22:32:13.401Z,5.23
2019-03-16T22:34:46.817Z,5.00
2019-03-16T22:37:20.846Z,4.50
2019-03-16T22:39:51.606Z,5.90
2019-03-16T22:42:23.013Z,5.63
2019-03-16T22:44:58.181Z,4.80
2019-03-16T22:47:29.354Z,5.13
2019-03-16T22:50:05.445Z,6.10
2019-03-16T22:52:35.193Z,5.80
2019-03-16T22:55:11.989Z,5.40
2019-03-16T22:57:43.826Z,5.40
2019-03-16T23:00:14.480Z,6.20
2019-03-16T23:02:44.906Z,5.20
2019-03-16T23:05:18.372Z,5.63
2019-03-16T23:07:48.121Z,5.40
2019-03-16T23:10:17.848Z,5.63
2019-03-16T23:12:47.559Z,6.20
2019-03-16T23:15:17.801Z,8.30
2019-03-16T23:17:47.385Z,7.80
2019-03-16T23:20:20.674Z,6.97
2019-03-16T23:22:57.338Z,5.80
2019-03-16T23:25:42.474Z,6.30
2019-03-16T23:28:12.921Z,5.17
2019-03-16T23:30:43.642Z,9.50
2019-03-16T23:33:14.448Z,7.17
2019-03-16T23:35:49.140Z,6.73
2019-03-16T23:38:27.154Z,7.70
2019-03-16T23:40:57.190Z,7.20
2019-03-16T23:43:30.843Z,7.23
2019-03-16T23:46:02.259Z,7.20
2019-03-16T23:48:36.601Z,7.53
2019-03-16T23:51:20.253Z,8.00
2019-03-16T23:53:51.090Z,7.23
2019-03-16T23:56:26.552Z,10.13
2019-03-16T23:59:04.383Z,10.33
